Time;durP1;ratioP1;P1;durP2;ratioP2;P2;SDS_P1;SDS_P2;PMS_P1;PMS_P2;Temp;Humidity;BMP_temperature;BMP_pressure;BME280_temperature;BME280_humidity;BME280_pressure;Samples;Min_cycle;Max_cycle;Signal;HPM_P1;HPM_P2
2022/10/08 00:00:47;;;;;;;;;;;;;;;;;;2132893;27;20295;-45
2022/10/08 00:01:47;;;;;;;;;;;;;;;;;;2132760;27;19999;-45
2022/10/08 00:02:48;;;;;;;;;;;;;;;;;;2132940;27;19923;-46
2022/10/08 00:03:50;;;;;;;;;;;;;;;;;;2132999;27;19968;-45
2022/10/08 00:04:50;;;;;;;;;;;;;;;;;;2132924;27;19954;-45
2022/10/08 00:05:51;;;;;;;;;;;;;;;;;;2132846;27;19961;-45
2022/10/08 00:06:52;;;;;;;;;;;;;;;;;;2132769;27;19923;-45
2022/10/08 00:07:53;;;;;;;;;;;;;;;;;;2133049;27;19964;-45
2022/10/08 00:08:53;;;;;;;;;;;;;;;;;;2132930;27;20288;-45
2022/10/08 00:09:54;;;;;;;;;;;;;;;;;;2132832;27;19924;-45
2022/10/08 00:10:55;;;;;;;;;;;;;;;;;;2132939;27;19946;-45
2022/10/08 00:11:56;;;;;;;;;;;;;;;;;;2132573;27;19958;-45
2022/10/08 00:12:57;;;;;;;;;;;;;;;;;;2132338;27;19930;-45
2022/10/08 00:13:58;;;;;;;;;;;;;;;;;;2132184;27;20390;-46
2022/10/08 00:14:59;;;;;;;;;;;;;;;;;;2132961;27;19923;-46
2022/10/08 00:16:00;;;;;;;;;;;;;;;;;;2132723;27;20021;-46
2022/10/08 00:17:01;;;;;;;;;;;;;;;;;;2132727;27;20269;-46
2022/10/08 00:18:01;;;;;;;;;;;;;;;;;;2132825;27;19930;-45
2022/10/08 00:19:02;;;;;;;;;;;;;;;;;;2132702;27;20423;-45
2022/10/08 00:20:03;;;;;;;;;;;;;;;;;;2132995;27;19931;-45
2022/10/08 00:21:04;;;;;;;;;;;;;;;;;;2132975;27;20438;-43
2022/10/08 00:22:05;;;;;;;;;;;;;;;;;;2132728;27;19972;-43
2022/10/08 00:23:06;;;;;;;;;;;;;;;;;;2132730;27;19934;-43
2022/10/08 00:24:07;;;;;;;;;;;;;;;;;;2132752;27;19923;-43
2022/10/08 00:25:09;;;;;;;;;;;;;;;;;;2132691;27;19931;-43
2022/10/08 00:26:10;;;;;;;;;;;;;;;;;;2132731;27;19930;-43
2022/10/08 00:27:11;;;;;;;;;;;;;;;;;;2132644;27;19927;-43
2022/10/08 00:28:12;;;;;;;;;;;;;;;;;;2133031;27;19930;-43
2022/10/08 00:29:13;;;;;;;;;;;;;;;;;;2133194;27;19923;-43
2022/10/08 00:30:14;;;;;;;;;;;;;;;;;;2132689;27;20456;-43
2022/10/08 00:31:15;;;;;;;;;;;;;;;;;;2132810;27;19958;-43
2022/10/08 00:32:18;;;;;;;;;;;;;;;;;;2132794;27;20030;-43
2022/10/08 00:33:19;;;;;;;;;;;;;;;;;;2132824;27;19927;-43
2022/10/08 00:34:21;;;;;;;;;;;;;;;;;;2132650;27;20426;-43
2022/10/08 00:35:21;;;;;;;;;;;;;;;;;;2132709;27;19923;-43
2022/10/08 00:36:22;;;;;;;;;;;;;;;;;;2132554;27;19923;-43
2022/10/08 00:37:24;;;;;;;;;;;;;;;;;;2132767;27;19968;-43
2022/10/08 00:38:25;;;;;;;;;;;;;;;;;;2132645;27;19930;-43
2022/10/08 00:39:26;;;;;;;;;;;;;;;;;;2132599;27;19934;-43
2022/10/08 00:40:27;;;;;;;;;;;;;;;;;;2132790;27;20200;-43
2022/10/08 00:41:28;;;;;;;;;;;;;;;;;;2132739;27;19996;-43
2022/10/08 00:42:28;;;;;;;;;;;;;;;;;;2132979;27;19976;-46
2022/10/08 00:43:31;;;;;;;;;;;;;;;;;;2132789;27;19923;-46
2022/10/08 00:44:31;;;;;;;;;;;;;;;;;;2132767;27;19926;-46
2022/10/08 00:45:32;;;;;;;;;;;;;;;;;;2132492;27;19923;-45
2022/10/08 00:46:33;;;;;;;;;;;;;;;;;;2132733;27;20112;-45
2022/10/08 00:47:34;;;;;;;;;;;;;;;;;;2132563;27;19929;-45
2022/10/08 00:48:35;;;;;;;;;;;;;;;;;;2132583;27;19923;-45
2022/10/08 00:49:36;;;;;;;;;;;;;;;;;;2132655;27;19966;-45
2022/10/08 00:50:38;;;;;;;;;;;;;;;;;;2132784;27;20317;-43
2022/10/08 00:51:39;;;;;;;;;;;;;;;;;;2132659;27;19931;-43
2022/10/08 00:52:40;;;;;;;;;;;;;;;;;;2132561;27;19977;-43
2022/10/08 00:53:40;;;;;;;;;;;;;;;;;;2132543;27;19930;-43
2022/10/08 00:54:41;;;;;;;;;;;;;;;;;;2132527;27;19927;-43
2022/10/08 00:55:43;;;;;;;;;;;;;;;;;;2132535;27;19946;-43
2022/10/08 00:56:44;;;;;;;;;;;;;;;;;;2132477;27;19927;-43
2022/10/08 00:57:45;;;;;;;;;;;;;;;;;;2132484;27;20295;-43
2022/10/08 00:58:46;;;;;;;;;;;;;;;;;;2132231;27;19938;-43
2022/10/08 00:59:47;;;;;;;;;;;;;;;;;;2132652;27;19923;-43
2022/10/08 01:00:48;;;;;;;;;;;;;;;;;;2132504;27;20337;-43
2022/10/08 01:01:48;;;;;;;;;;;;;;;;;;2132520;27;20071;-43
2022/10/08 01:02:49;;;;;;;;;;;;;;;;;;2132797;27;19971;-45
2022/10/08 01:03:50;;;;;;;;;;;;;;;;;;2132438;27;19923;-45
2022/10/08 01:04:51;;;;;;;;;;;;;;;;;;2132638;27;19923;-45
2022/10/08 01:05:53;;;;;;;;;;;;;;;;;;2132433;27;19924;-46
2022/10/08 01:06:54;;;;;;;;;;;;;;;;;;2132505;27;19930;-45
2022/10/08 01:07:55;;;;;;;;;;;;;;;;;;2132402;27;19923;-46
2022/10/08 01:08:56;;;;;;;;;;;;;;;;;;2132507;27;19927;-45
2022/10/08 01:09:57;;;;;;;;;;;;;;;;;;2132502;27;19930;-45
2022/10/08 01:10:58;;;;;;;;;;;;;;;;;;2132414;27;19923;-45
2022/10/08 01:11:59;;;;;;;;;;;;;;;;;;2132315;27;19930;-45
2022/10/08 01:13:00;;;;;;;;;;;;;;;;;;2132333;27;19923;-45
2022/10/08 01:14:01;;;;;;;;;;;;;;;;;;2132490;27;19930;-45
2022/10/08 01:15:02;;;;;;;;;;;;;;;;;;2132361;27;19930;-45
2022/10/08 01:16:03;;;;;;;;;;;;;;;;;;2132406;27;19923;-45
2022/10/08 01:17:04;;;;;;;;;;;;;;;;;;2132266;27;20026;-45
2022/10/08 01:18:04;;;;;;;;;;;;;;;;;;2132388;27;19923;-45
2022/10/08 01:19:05;;;;;;;;;;;;;;;;;;2132433;27;20021;-46
2022/10/08 01:20:06;;;;;;;;;;;;;;;;;;2132409;27;19934;-46
2022/10/08 01:21:07;;;;;;;;;;;;;;;;;;2132442;27;19923;-46
2022/10/08 01:22:08;;;;;;;;;;;;;;;;;;2132426;27;19927;-45
2022/10/08 01:23:09;;;;;;;;;;;;;;;;;;2132358;27;20021;-46
2022/10/08 01:24:09;;;;;;;;;;;;;;;;;;2132280;27;19923;-45
2022/10/08 01:26:30;;;;;;;;;;;;;;;;;;2132247;27;19923;-46
2022/10/08 01:27:31;;;;;;;;;;;;;;;;;;2132330;27;19931;-45
2022/10/08 01:28:32;;;;;;;;;;;;;;;;;;2132285;27;19930;-45
2022/10/08 01:29:32;;;;;;;;;;;;;;;;;;2132290;27;19971;-45
2022/10/08 01:30:33;;;;;;;;;;;;;;;;;;2132293;27;20425;-45
2022/10/08 01:31:34;;;;;;;;;;;;;;;;;;2132137;27;20355;-45
2022/10/08 01:32:37;;;;;;;;;;;;;;;;;;2132305;27;19972;-45
2022/10/08 01:33:38;;;;;;;;;;;;;;;;;;2132383;27;19930;-45
2022/10/08 01:34:39;;;;;;;;;;;;;;;;;;2132248;27;19958;-45
2022/10/08 01:35:39;;;;;;;;;;;;;;;;;;2132513;27;19934;-46
2022/10/08 01:36:40;;;;;;;;;;;;;;;;;;2132246;27;20219;-45
2022/10/08 01:37:41;;;;;;;;;;;;;;;;;;2132203;27;20380;-45
2022/10/08 01:38:43;;;;;;;;;;;;;;;;;;2132414;27;20303;-46
2022/10/08 01:39:44;;;;;;;;;;;;;;;;;;2132280;27;20368;-45
2022/10/08 01:40:45;;;;;;;;;;;;;;;;;;2132348;27;19958;-46
2022/10/08 01:41:45;;;;;;;;;;;;;;;;;;2132149;27;20441;-46
2022/10/08 01:42:46;;;;;;;;;;;;;;;;;;2132265;27;19923;-46
2022/10/08 01:43:47;;;;;;;;;;;;;;;;;;2132156;27;20013;-45
2022/10/08 01:44:48;;;;;;;;;;;;;;;;;;2132198;27;19970;-45
2022/10/08 01:45:49;;;;;;;;;;;;;;;;;;2132239;27;19974;-46
2022/10/08 01:46:50;;;;;;;;;;;;;;;;;;2132267;27;19946;-46
2022/10/08 01:47:51;;;;;;;;;;;;;;;;;;2132311;27;20291;-46
2022/10/08 01:48:52;;;;;;;;;;;;;;;;;;2132217;27;20010;-46
2022/10/08 01:49:53;;;;;;;;;;;;;;;;;;2132236;27;19930;-45
2022/10/08 01:50:54;;;;;;;;;;;;;;;;;;2132231;27;19971;-46
2022/10/08 01:51:55;;;;;;;;;;;;;;;;;;2132122;27;19923;-45
2022/10/08 01:52:56;;;;;;;;;;;;;;;;;;2132109;27;19923;-45
2022/10/08 01:53:56;;;;;;;;;;;;;;;;;;2132180;27;20010;-45
2022/10/08 01:54:58;;;;;;;;;;;;;;;;;;2131997;27;19930;-45
2022/10/08 01:55:59;;;;;;;;;;;;;;;;;;2132118;27;20391;-45
2022/10/08 01:57:00;;;;;;;;;;;;;;;;;;2132078;27;19972;-46
2022/10/08 01:58:01;;;;;;;;;;;;;;;;;;2132072;27;19973;-45
2022/10/08 01:59:02;;;;;;;;;;;;;;;;;;2132279;27;20006;-46
2022/10/08 02:00:02;;;;;;;;;;;;;;;;;;2132293;27;20411;-45
2022/10/08 02:01:03;;;;;;;;;;;;;;;;;;2132252;27;20496;-45
2022/10/08 02:02:04;;;;;;;;;;;;;;;;;;2132099;27;20189;-45
2022/10/08 02:03:05;;;;;;;;;;;;;;;;;;2132102;27;19924;-45
2022/10/08 02:05:25;;;;;;;;;;;;;;;;;;2132106;27;19923;-45
2022/10/08 02:06:26;;;;;;;;;;;;;;;;;;2132190;27;20291;-46
2022/10/08 02:07:27;;;;;;;;;;;;;;;;;;2132158;27;20388;-45
2022/10/08 02:08:28;;;;;;;;;;;;;;;;;;2132006;27;19923;-45
2022/10/08 02:09:29;;;;;;;;;;;;;;;;;;2132177;27;20017;-45
2022/10/08 02:10:30;;;;;;;;;;;;;;;;;;2132119;27;19927;-45
2022/10/08 02:11:32;;;;;;;;;;;;;;;;;;2131681;27;20010;-45
2022/10/08 02:12:33;;;;;;;;;;;;;;;;;;2132164;27;19923;-46
2022/10/08 02:13:34;;;;;;;;;;;;;;;;;;2131951;27;19976;-45
2022/10/08 02:14:35;;;;;;;;;;;;;;;;;;2132000;27;19923;-45
2022/10/08 02:15:35;;;;;;;;;;;;;;;;;;2132028;27;19930;-45
2022/10/08 02:16:36;;;;;;;;;;;;;;;;;;2131930;27;20348;-45
2022/10/08 02:17:37;;;;;;;;;;;;;;;;;;2132043;27;20015;-45
2022/10/08 02:18:38;;;;;;;;;;;;;;;;;;2131963;27;20021;-45
2022/10/08 02:19:39;;;;;;;;;;;;;;;;;;2131935;27;19923;-45
2022/10/08 02:20:40;;;;;;;;;;;;;;;;;;2132078;27;19927;-45
2022/10/08 02:21:40;;;;;;;;;;;;;;;;;;2131921;27;19934;-45
2022/10/08 02:22:43;;;;;;;;;;;;;;;;;;2131944;27;19927;-46
2022/10/08 02:23:44;;;;;;;;;;;;;;;;;;2132092;27;19966;-45
2022/10/08 02:24:45;;;;;;;;;;;;;;;;;;2131953;27;20103;-48
2022/10/08 02:25:45;;;;;;;;;;;;;;;;;;2131869;27;19941;-45
2022/10/08 02:26:46;;;;;;;;;;;;;;;;;;2131809;27;19923;-45
2022/10/08 02:27:49;;;;;;;;;;;;;;;;;;2131968;27;19923;-45
2022/10/08 02:28:50;;;;;;;;;;;;;;;;;;2131842;27;19931;-45
2022/10/08 02:29:51;;;;;;;;;;;;;;;;;;2132035;27;19967;-46
2022/10/08 02:30:52;;;;;;;;;;;;;;;;;;2131931;27;20023;-46
2022/10/08 02:31:53;;;;;;;;;;;;;;;;;;2131793;27;19961;-45
2022/10/08 02:32:54;;;;;;;;;;;;;;;;;;2132144;27;20022;-45
2022/10/08 02:33:55;;;;;;;;;;;;;;;;;;2131854;27;19923;-46
2022/10/08 02:34:56;;;;;;;;;;;;;;;;;;2131884;27;20324;-45
2022/10/08 02:35:56;;;;;;;;;;;;;;;;;;2131552;27;19924;-45
2022/10/08 02:36:57;;;;;;;;;;;;;;;;;;2131280;27;19962;-45
2022/10/08 02:37:58;;;;;;;;;;;;;;;;;;2131913;27;19923;-46
2022/10/08 02:38:59;;;;;;;;;;;;;;;;;;2131997;27;19929;-45
2022/10/08 02:40:00;;;;;;;;;;;;;;;;;;2131917;27;20371;-46
2022/10/08 02:41:01;;;;;;;;;;;;;;;;;;2131853;27;20360;-45
2022/10/08 02:42:01;;;;;;;;;;;;;;;;;;2131777;27;19923;-45
2022/10/08 02:43:02;;;;;;;;;;;;;;;;;;2131786;27;19937;-45
2022/10/08 02:44:05;;;;;;;;;;;;;;;;;;2131957;27;19923;-46
2022/10/08 02:45:06;;;;;;;;;;;;;;;;;;2131818;27;19927;-45
2022/10/08 02:46:08;;;;;;;;;;;;;;;;;;2131744;27;19923;-46
2022/10/08 02:47:09;;;;;;;;;;;;;;;;;;2131703;27;20352;-45
2022/10/08 02:48:10;;;;;;;;;;;;;;;;;;2131975;27;19942;-45
2022/10/08 02:49:11;;;;;;;;;;;;;;;;;;2131736;27;20433;-46
2022/10/08 02:50:12;;;;;;;;;;;;;;;;;;2132072;27;19976;-45
2022/10/08 02:51:14;;;;;;;;;;;;;;;;;;2131562;27;19923;-45
2022/10/08 02:52:15;;;;;;;;;;;;;;;;;;2131821;27;19923;-45
2022/10/08 02:53:17;;;;;;;;;;;;;;;;;;2131921;27;19927;-45
2022/10/08 02:54:17;;;;;;;;;;;;;;;;;;2131938;27;19923;-43
2022/10/08 02:55:18;;;;;;;;;;;;;;;;;;2131907;27;20432;-43
2022/10/08 02:56:19;;;;;;;;;;;;;;;;;;2131752;27;19926;-43
2022/10/08 02:57:20;;;;;;;;;;;;;;;;;;2131976;27;19923;-43
2022/10/08 02:58:21;;;;;;;;;;;;;;;;;;2131718;27;20261;-43
2022/10/08 02:59:21;;;;;;;;;;;;;;;;;;2132083;27;19931;-43
2022/10/08 03:00:22;;;;;;;;;;;;;;;;;;2131895;27;20284;-43
2022/10/08 03:01:25;;;;;;;;;;;;;;;;;;2131634;27;19967;-44
2022/10/08 03:02:26;;;;;;;;;;;;;;;;;;2131687;27;19950;-43
2022/10/08 03:03:27;;;;;;;;;;;;;;;;;;2131738;27;20352;-43
2022/10/08 03:04:28;;;;;;;;;;;;;;;;;;2131984;27;19961;-43
2022/10/08 03:05:29;;;;;;;;;;;;;;;;;;2131681;27;20352;-43
2022/10/08 03:06:30;;;;;;;;;;;;;;;;;;2131628;27;19980;-43
2022/10/08 03:07:31;;;;;;;;;;;;;;;;;;2131722;27;19931;-43
2022/10/08 03:08:32;;;;;;;;;;;;;;;;;;2131874;27;20390;-44
2022/10/08 03:09:33;;;;;;;;;;;;;;;;;;2131807;27;20013;-43
2022/10/08 03:10:33;;;;;;;;;;;;;;;;;;2131705;27;19927;-43
2022/10/08 03:11:34;;;;;;;;;;;;;;;;;;2131542;27;19923;-43
2022/10/08 03:12:35;;;;;;;;;;;;;;;;;;2131852;27;20279;-43
2022/10/08 03:13:36;;;;;;;;;;;;;;;;;;2131655;27;19931;-43
2022/10/08 03:14:37;;;;;;;;;;;;;;;;;;2131809;27;19927;-43
2022/10/08 03:15:38;;;;;;;;;;;;;;;;;;2131820;27;19976;-43
2022/10/08 03:16:39;;;;;;;;;;;;;;;;;;2131614;27;19977;-43
2022/10/08 03:17:40;;;;;;;;;;;;;;;;;;2131628;27;19923;-43
2022/10/08 03:18:41;;;;;;;;;;;;;;;;;;2131683;27;20018;-43
2022/10/08 03:19:42;;;;;;;;;;;;;;;;;;2132047;27;19933;-45
2022/10/08 03:20:43;;;;;;;;;;;;;;;;;;2131671;27;19983;-45
2022/10/08 03:21:44;;;;;;;;;;;;;;;;;;2131735;27;19927;-45
2022/10/08 03:22:45;;;;;;;;;;;;;;;;;;2131602;27;19923;-45
2022/10/08 03:23:46;;;;;;;;;;;;;;;;;;2131656;27;19927;-46
2022/10/08 03:24:47;;;;;;;;;;;;;;;;;;2132030;27;20268;-43
2022/10/08 03:25:48;;;;;;;;;;;;;;;;;;2131694;27;20392;-45
2022/10/08 03:26:48;;;;;;;;;;;;;;;;;;2131699;27;19946;-45
2022/10/08 03:27:50;;;;;;;;;;;;;;;;;;2131603;27;20029;-45
2022/10/08 03:28:50;;;;;;;;;;;;;;;;;;2131592;27;19923;-45
2022/10/08 03:29:56;;;;;;;;;;;;;;;;;;2131576;27;19931;-45
2022/10/08 03:30:56;;;;;;;;;;;;;;;;;;2131658;27;19958;-45
2022/10/08 03:31:57;;;;;;;;;;;;;;;;;;2131478;27;19930;-45
2022/10/08 03:32:58;;;;;;;;;;;;;;;;;;2131728;27;20411;-45
2022/10/08 03:34:00;;;;;;;;;;;;;;;;;;2131584;27;19936;-45
2022/10/08 03:35:00;;;;;;;;;;;;;;;;;;2131701;27;19931;-45
2022/10/08 03:36:01;;;;;;;;;;;;;;;;;;2131610;27;19974;-45
2022/10/08 03:37:02;;;;;;;;;;;;;;;;;;2131666;27;19923;-46
2022/10/08 03:38:03;;;;;;;;;;;;;;;;;;2131552;27;20387;-45
2022/10/08 03:39:04;;;;;;;;;;;;;;;;;;2131526;27;19924;-45
2022/10/08 03:40:04;;;;;;;;;;;;;;;;;;2131801;27;19970;-43
2022/10/08 03:41:05;;;;;;;;;;;;;;;;;;2131571;27;20009;-43
2022/10/08 03:42:06;;;;;;;;;;;;;;;;;;2131591;27;19950;-44
2022/10/08 03:43:07;;;;;;;;;;;;;;;;;;2131796;27;19946;-43
2022/10/08 03:44:08;;;;;;;;;;;;;;;;;;2131490;27;19923;-43
2022/10/08 03:45:09;;;;;;;;;;;;;;;;;;2131474;27;20391;-43
2022/10/08 03:46:09;;;;;;;;;;;;;;;;;;2131429;27;19923;-43
2022/10/08 03:47:10;;;;;;;;;;;;;;;;;;2131639;27;19962;-43
2022/10/08 03:48:11;;;;;;;;;;;;;;;;;;2132708;27;19923;-43
2022/10/08 03:49:12;;;;;;;;;;;;;;;;;;2132987;27;19931;-43
2022/10/08 03:50:13;;;;;;;;;;;;;;;;;;2132979;27;19923;-43
2022/10/08 03:51:14;;;;;;;;;;;;;;;;;;2133145;27;19968;-44
2022/10/08 03:52:14;;;;;;;;;;;;;;;;;;2132957;27;20431;-43
2022/10/08 03:53:15;;;;;;;;;;;;;;;;;;2132963;27;19962;-43
2022/10/08 03:54:16;;;;;;;;;;;;;;;;;;2133050;27;19926;-43
2022/10/08 03:55:17;;;;;;;;;;;;;;;;;;2133299;27;20364;-46
2022/10/08 03:56:17;;;;;;;;;;;;;;;;;;2133273;27;19923;-43
2022/10/08 03:57:18;;;;;;;;;;;;;;;;;;2133038;27;19952;-43
2022/10/08 03:58:19;;;;;;;;;;;;;;;;;;2133048;27;19934;-43
2022/10/08 03:59:20;;;;;;;;;;;;;;;;;;2132838;27;20261;-43
2022/10/08 04:00:21;;;;;;;;;;;;;;;;;;2132959;27;19923;-43
2022/10/08 04:01:22;;;;;;;;;;;;;;;;;;2133102;27;20022;-43
2022/10/08 04:02:23;;;;;;;;;;;;;;;;;;2133051;27;19927;-43
2022/10/08 04:03:24;;;;;;;;;;;;;;;;;;2132836;27;20017;-43
2022/10/08 04:04:25;;;;;;;;;;;;;;;;;;2132862;27;20253;-43
2022/10/08 04:05:26;;;;;;;;;;;;;;;;;;2132856;27;19977;-43
2022/10/08 04:06:27;;;;;;;;;;;;;;;;;;2132857;27;19923;-43
2022/10/08 04:07:28;;;;;;;;;;;;;;;;;;2132983;27;20343;-43
2022/10/08 04:08:28;;;;;;;;;;;;;;;;;;2132826;27;19924;-43
2022/10/08 04:09:29;;;;;;;;;;;;;;;;;;2132958;27;19927;-43
2022/10/08 04:10:30;;;;;;;;;;;;;;;;;;2132985;27;19988;-44
2022/10/08 04:11:31;;;;;;;;;;;;;;;;;;2132642;27;19929;-43
2022/10/08 04:12:32;;;;;;;;;;;;;;;;;;2132769;27;19923;-43
2022/10/08 04:13:32;;;;;;;;;;;;;;;;;;2132907;27;20380;-43
2022/10/08 04:14:33;;;;;;;;;;;;;;;;;;2133117;27;19923;-45
2022/10/08 04:15:34;;;;;;;;;;;;;;;;;;2132968;27;20345;-45
2022/10/08 04:16:35;;;;;;;;;;;;;;;;;;2132964;27;19962;-45
2022/10/08 04:17:36;;;;;;;;;;;;;;;;;;2132765;27;20394;-45
2022/10/08 04:18:37;;;;;;;;;;;;;;;;;;2132744;27;19970;-46
2022/10/08 04:19:38;;;;;;;;;;;;;;;;;;2133007;27;19974;-46
2022/10/08 04:20:38;;;;;;;;;;;;;;;;;;2132843;27;19930;-43
2022/10/08 04:21:39;;;;;;;;;;;;;;;;;;2132755;27;20432;-43
2022/10/08 04:22:40;;;;;;;;;;;;;;;;;;2133068;27;19923;-45
2022/10/08 04:23:41;;;;;;;;;;;;;;;;;;2132856;27;20371;-46
2022/10/08 04:24:42;;;;;;;;;;;;;;;;;;2132951;27;19979;-46
2022/10/08 04:25:43;;;;;;;;;;;;;;;;;;2132777;27;20388;-46
2022/10/08 04:26:43;;;;;;;;;;;;;;;;;;2132917;27;19930;-45
2022/10/08 04:27:48;;;;;;;;;;;;;;;;;;2132619;27;19976;-45
2022/10/08 04:28:48;;;;;;;;;;;;;;;;;;2132655;27;19923;-45
2022/10/08 04:29:49;;;;;;;;;;;;;;;;;;2132955;27;20301;-43
2022/10/08 04:30:50;;;;;;;;;;;;;;;;;;2132668;27;19923;-43
2022/10/08 04:31:51;;;;;;;;;;;;;;;;;;2132725;27;19974;-43
2022/10/08 04:32:52;;;;;;;;;;;;;;;;;;2132879;27;19923;-43
2022/10/08 04:33:52;;;;;;;;;;;;;;;;;;2132684;27;19923;-43
2022/10/08 04:34:53;;;;;;;;;;;;;;;;;;2132618;27;20440;-43
2022/10/08 04:35:54;;;;;;;;;;;;;;;;;;2132850;27;19975;-43
2022/10/08 04:37:00;;;;;;;;;;;;;;;;;;2132894;27;19923;-46
2022/10/08 04:38:01;;;;;;;;;;;;;;;;;;2132639;27;20402;-45
2022/10/08 04:39:01;;;;;;;;;;;;;;;;;;2132646;27;19923;-45
2022/10/08 04:40:02;;;;;;;;;;;;;;;;;;2132858;27;19927;-43
2022/10/08 04:41:03;;;;;;;;;;;;;;;;;;2132661;27;19927;-44
2022/10/08 04:42:04;;;;;;;;;;;;;;;;;;2132509;27;19970;-44
2022/10/08 04:43:04;;;;;;;;;;;;;;;;;;2132578;27;19950;-43
2022/10/08 04:44:05;;;;;;;;;;;;;;;;;;2132825;27;20261;-46
2022/10/08 04:45:06;;;;;;;;;;;;;;;;;;2133001;27;20364;-43
2022/10/08 04:46:07;;;;;;;;;;;;;;;;;;2132720;27;20039;-43
2022/10/08 04:47:08;;;;;;;;;;;;;;;;;;2132880;27;19923;-45
2022/10/08 04:48:09;;;;;;;;;;;;;;;;;;2132715;27;20397;-45
2022/10/08 04:49:10;;;;;;;;;;;;;;;;;;2132563;27;20018;-45
2022/10/08 04:50:10;;;;;;;;;;;;;;;;;;2132706;27;19930;-45
2022/10/08 04:51:11;;;;;;;;;;;;;;;;;;2132563;27;20004;-46
2022/10/08 04:52:12;;;;;;;;;;;;;;;;;;2132524;27;19927;-45
2022/10/08 04:53:13;;;;;;;;;;;;;;;;;;2132538;27;19931;-46
2022/10/08 04:54:14;;;;;;;;;;;;;;;;;;2132533;27;19923;-45
2022/10/08 04:55:15;;;;;;;;;;;;;;;;;;2132644;27;19929;-45
2022/10/08 04:56:15;;;;;;;;;;;;;;;;;;2132785;27;19923;-45
2022/10/08 04:57:16;;;;;;;;;;;;;;;;;;2132531;27;19933;-45
2022/10/08 04:58:17;;;;;;;;;;;;;;;;;;2132661;27;20368;-45
2022/10/08 04:59:18;;;;;;;;;;;;;;;;;;2132108;27;20352;-45
2022/10/08 05:00:19;;;;;;;;;;;;;;;;;;2132433;27;20372;-45
2022/10/08 05:01:20;;;;;;;;;;;;;;;;;;2132689;27;19975;-45
2022/10/08 05:02:21;;;;;;;;;;;;;;;;;;2132639;27;20454;-45
2022/10/08 05:03:22;;;;;;;;;;;;;;;;;;2132674;27;19955;-45
2022/10/08 05:04:22;;;;;;;;;;;;;;;;;;2132822;27;19947;-46
2022/10/08 05:05:23;;;;;;;;;;;;;;;;;;2132516;27;20034;-43
2022/10/08 05:06:24;;;;;;;;;;;;;;;;;;2132537;27;19970;-44
2022/10/08 05:07:25;;;;;;;;;;;;;;;;;;2132915;27;20276;-47
2022/10/08 05:08:26;;;;;;;;;;;;;;;;;;2132590;27;19930;-43
2022/10/08 05:09:27;;;;;;;;;;;;;;;;;;2132454;27;19927;-43
2022/10/08 05:10:27;;;;;;;;;;;;;;;;;;2132589;27;20391;-43
2022/10/08 05:11:28;;;;;;;;;;;;;;;;;;2132442;27;19923;-45
2022/10/08 05:12:29;;;;;;;;;;;;;;;;;;2132439;27;19923;-45
2022/10/08 05:13:30;;;;;;;;;;;;;;;;;;2132429;27;19973;-45
2022/10/08 05:14:31;;;;;;;;;;;;;;;;;;2132393;27;19968;-45
2022/10/08 05:15:32;;;;;;;;;;;;;;;;;;2132677;27;19927;-46
2022/10/08 05:16:32;;;;;;;;;;;;;;;;;;2132270;27;20447;-46
2022/10/08 05:17:33;;;;;;;;;;;;;;;;;;2132635;27;19923;-43
2022/10/08 05:18:34;;;;;;;;;;;;;;;;;;2132356;27;20325;-43
2022/10/08 05:19:35;;;;;;;;;;;;;;;;;;2132719;27;20368;-47
2022/10/08 05:20:36;;;;;;;;;;;;;;;;;;2132542;27;19952;-43
2022/10/08 05:21:36;;;;;;;;;;;;;;;;;;2132689;27;20310;-43
2022/10/08 05:22:37;;;;;;;;;;;;;;;;;;2132605;27;19923;-44
2022/10/08 05:23:38;;;;;;;;;;;;;;;;;;2132740;27;20019;-46
2022/10/08 05:24:39;;;;;;;;;;;;;;;;;;2132519;27;19967;-46
2022/10/08 05:25:41;;;;;;;;;;;;;;;;;;2132368;27;19923;-44
2022/10/08 05:26:42;;;;;;;;;;;;;;;;;;2132307;27;19927;-43
2022/10/08 05:27:59;;;;;;;;;;;;;;;;;;2132437;27;19990;-43
2022/10/08 05:29:00;;;;;;;;;;;;;;;;;;2132325;27;20384;-44
2022/10/08 05:30:01;;;;;;;;;;;;;;;;;;2132306;27;20271;-43
2022/10/08 05:31:02;;;;;;;;;;;;;;;;;;2132614;27;19929;-45
2022/10/08 05:32:03;;;;;;;;;;;;;;;;;;2132488;27;20380;-45
2022/10/08 05:33:04;;;;;;;;;;;;;;;;;;2132656;27;20005;-46
2022/10/08 05:34:05;;;;;;;;;;;;;;;;;;2132495;27;19946;-45
2022/10/08 05:35:05;;;;;;;;;;;;;;;;;;2132219;27;19974;-46
2022/10/08 05:36:06;;;;;;;;;;;;;;;;;;2132250;27;20215;-47
2022/10/08 05:37:07;;;;;;;;;;;;;;;;;;2132369;27;20444;-46
2022/10/08 05:38:08;;;;;;;;;;;;;;;;;;2132216;27;19931;-45
2022/10/08 05:39:09;;;;;;;;;;;;;;;;;;2132190;27;19924;-45
2022/10/08 05:40:09;;;;;;;;;;;;;;;;;;2132521;27;20018;-45
2022/10/08 05:41:10;;;;;;;;;;;;;;;;;;2132192;27;19923;-45
2022/10/08 05:42:12;;;;;;;;;;;;;;;;;;2132096;27;19923;-46
2022/10/08 05:43:13;;;;;;;;;;;;;;;;;;2132350;27;19923;-45
2022/10/08 05:44:13;;;;;;;;;;;;;;;;;;2132211;27;20045;-45
2022/10/08 05:45:14;;;;;;;;;;;;;;;;;;2132216;27;19930;-45
2022/10/08 05:46:15;;;;;;;;;;;;;;;;;;2132121;27;19931;-45
2022/10/08 05:47:16;;;;;;;;;;;;;;;;;;2132559;27;19923;-44
2022/10/08 05:48:17;;;;;;;;;;;;;;;;;;2132314;27;19933;-44
2022/10/08 05:49:18;;;;;;;;;;;;;;;;;;2132176;27;20387;-44
2022/10/08 05:50:18;;;;;;;;;;;;;;;;;;2132307;27;19923;-44
2022/10/08 05:51:19;;;;;;;;;;;;;;;;;;2132295;27;19938;-44
2022/10/08 05:52:20;;;;;;;;;;;;;;;;;;2132241;27;19930;-44
2022/10/08 05:53:21;;;;;;;;;;;;;;;;;;2132455;27;20035;-44
2022/10/08 05:54:22;;;;;;;;;;;;;;;;;;2132093;27;20371;-44
2022/10/08 05:55:23;;;;;;;;;;;;;;;;;;2132306;27;19923;-44
2022/10/08 05:56:24;;;;;;;;;;;;;;;;;;2132293;27;19929;-45
2022/10/08 05:57:24;;;;;;;;;;;;;;;;;;2132324;27;20394;-44
2022/10/08 05:58:25;;;;;;;;;;;;;;;;;;2132172;27;20390;-44
2022/10/08 05:59:30;;;;;;;;;;;;;;;;;;2132381;27;20402;-45
2022/10/08 06:00:31;;;;;;;;;;;;;;;;;;2132232;27;19962;-44
2022/10/08 06:01:32;;;;;;;;;;;;;;;;;;2132330;27;19923;-44
2022/10/08 06:02:33;;;;;;;;;;;;;;;;;;2132196;27;19926;-46
2022/10/08 06:03:34;;;;;;;;;;;;;;;;;;2132371;27;20261;-44
2022/10/08 06:04:35;;;;;;;;;;;;;;;;;;2132256;27;19966;-44
2022/10/08 06:05:36;;;;;;;;;;;;;;;;;;2132068;27;19923;-45
2022/10/08 06:06:38;;;;;;;;;;;;;;;;;;2132022;27;19927;-44
2022/10/08 06:07:38;;;;;;;;;;;;;;;;;;2132096;27;19930;-44
2022/10/08 06:08:40;;;;;;;;;;;;;;;;;;2132341;27;20287;-45
2022/10/08 06:09:40;;;;;;;;;;;;;;;;;;2132036;27;20281;-44
2022/10/08 06:10:41;;;;;;;;;;;;;;;;;;2132130;27;20034;-45
2022/10/08 06:11:42;;;;;;;;;;;;;;;;;;2130881;27;19927;-46
2022/10/08 06:12:43;;;;;;;;;;;;;;;;;;2132161;27;19968;-44
2022/10/08 06:13:44;;;;;;;;;;;;;;;;;;2132272;27;19970;-46
2022/10/08 06:14:45;;;;;;;;;;;;;;;;;;2132075;27;20034;-47
2022/10/08 06:15:46;;;;;;;;;;;;;;;;;;2132577;27;19923;-45
2022/10/08 06:16:47;;;;;;;;;;;;;;;;;;2132100;27;19951;-45
2022/10/08 06:17:48;;;;;;;;;;;;;;;;;;2132023;27;20003;-44
2022/10/08 06:18:48;;;;;;;;;;;;;;;;;;2131952;27;19930;-44
2022/10/08 06:19:49;;;;;;;;;;;;;;;;;;2132140;27;19930;-45
2022/10/08 06:20:50;;;;;;;;;;;;;;;;;;2131903;27;19999;-46
2022/10/08 06:21:51;;;;;;;;;;;;;;;;;;2131905;27;20372;-45
2022/10/08 06:22:51;;;;;;;;;;;;;;;;;;2131893;27;19963;-45
2022/10/08 06:23:52;;;;;;;;;;;;;;;;;;2132268;27;20025;-46
2022/10/08 06:24:53;;;;;;;;;;;;;;;;;;2132133;27;20406;-45
2022/10/08 06:25:54;;;;;;;;;;;;;;;;;;2131826;27;19923;-46
2022/10/08 06:26:55;;;;;;;;;;;;;;;;;;2131996;27;19927;-45
2022/10/08 06:27:56;;;;;;;;;;;;;;;;;;2131961;27;19995;-45
2022/10/08 06:28:57;;;;;;;;;;;;;;;;;;2131939;27;19982;-46
2022/10/08 06:29:58;;;;;;;;;;;;;;;;;;2132181;27;19923;-45
2022/10/08 06:30:58;;;;;;;;;;;;;;;;;;2132040;27;19923;-45
2022/10/08 06:31:59;;;;;;;;;;;;;;;;;;2131957;27;20387;-44
2022/10/08 06:33:00;;;;;;;;;;;;;;;;;;2132061;27;19929;-44
2022/10/08 06:34:03;;;;;;;;;;;;;;;;;;2131907;27;20283;-44
2022/10/08 06:35:03;;;;;;;;;;;;;;;;;;2131869;27;20371;-44
2022/10/08 06:36:04;;;;;;;;;;;;;;;;;;2131874;27;20137;-44
2022/10/08 06:37:05;;;;;;;;;;;;;;;;;;2131745;27;19923;-45
2022/10/08 06:38:06;;;;;;;;;;;;;;;;;;2132034;27;19926;-44
2022/10/08 06:39:06;;;;;;;;;;;;;;;;;;2131838;27;19927;-44
2022/10/08 06:40:07;;;;;;;;;;;;;;;;;;2131889;27;19984;-44
2022/10/08 06:41:08;;;;;;;;;;;;;;;;;;2131788;27;19923;-44
2022/10/08 06:42:09;;;;;;;;;;;;;;;;;;2131780;27;19923;-44
2022/10/08 06:43:11;;;;;;;;;;;;;;;;;;2131793;27;20437;-44
2022/10/08 06:44:12;;;;;;;;;;;;;;;;;;2132162;27;20048;-42
2022/10/08 06:45:12;;;;;;;;;;;;;;;;;;2131946;27;19923;-45
2022/10/08 06:46:14;;;;;;;;;;;;;;;;;;2131971;27;20258;-46
2022/10/08 06:47:15;;;;;;;;;;;;;;;;;;2132052;27;20006;-45
2022/10/08 06:48:18;;;;;;;;;;;;;;;;;;2131825;27;19975;-44
2022/10/08 06:49:21;;;;;;;;;;;;;;;;;;2131961;27;19934;-44
2022/10/08 06:50:21;;;;;;;;;;;;;;;;;;2131763;27;20306;-45
2022/10/08 06:51:22;;;;;;;;;;;;;;;;;;2131893;27;19966;-44
2022/10/08 06:52:23;;;;;;;;;;;;;;;;;;2131820;27;20453;-44
2022/10/08 06:53:24;;;;;;;;;;;;;;;;;;2132094;27;19970;-45
2022/10/08 06:54:26;;;;;;;;;;;;;;;;;;2131715;27;19923;-45
2022/10/08 06:55:26;;;;;;;;;;;;;;;;;;2131924;27;19934;-45
2022/10/08 06:56:28;;;;;;;;;;;;;;;;;;2132257;27;20413;-44
2022/10/08 06:57:28;;;;;;;;;;;;;;;;;;2131922;27;19923;-45
2022/10/08 06:58:29;;;;;;;;;;;;;;;;;;2131774;27;19930;-42
2022/10/08 06:59:30;;;;;;;;;;;;;;;;;;2131676;27;19923;-45